createdAt,value
2023-04-25T00:01:50.847Z,101110.13
2023-04-25T00:04:37.846Z,101116.25
2023-04-25T00:07:25.375Z,101113.63
2023-04-25T00:10:12.303Z,101111.00
2023-04-25T00:12:59.326Z,101095.22
2023-04-25T00:15:46.192Z,101094.34
2023-04-25T00:18:33.308Z,101091.75
2023-04-25T00:21:20.271Z,101107.53
2023-04-25T00:24:07.891Z,101117.19
2023-04-25T00:26:55.998Z,101131.22
2023-04-25T00:29:42.995Z,101125.97
2023-04-25T00:32:29.926Z,101132.94
2023-04-25T00:35:17.877Z,101122.41
2023-04-25T00:38:04.908Z,101114.50
2023-04-25T00:40:52.022Z,101111.00
2023-04-25T00:43:38.968Z,101107.53
2023-04-25T00:46:26.251Z,101104.00
2023-04-25T00:49:13.102Z,101097.88
2023-04-25T00:52:00.264Z,101103.13
2023-04-25T00:54:47.181Z,101099.66
2023-04-25T00:57:34.453Z,101085.81
2023-04-25T01:00:21.944Z,101113.63
2023-04-25T01:03:09.446Z,101091.03
2023-04-25T01:05:56.516Z,101111.00
2023-04-25T01:08:45.582Z,101077.28
2023-04-25T01:11:32.492Z,101118.00
2023-04-25T01:14:19.618Z,101114.50
2023-04-25T01:17:07.488Z,101116.22
2023-04-25T01:19:55.386Z,101100.56
2023-04-25T01:22:42.631Z,101113.53
2023-04-25T01:25:30.174Z,101118.78
2023-04-25T01:28:18.833Z,101134.56
2023-04-25T01:31:06.208Z,101117.00
2023-04-25T01:33:53.661Z,101113.50
2023-04-25T01:36:42.611Z,101106.50
2023-04-25T01:39:30.101Z,101090.91
2023-04-25T01:42:17.892Z,101047.59
2023-04-25T01:45:04.855Z,101101.22
2023-04-25T01:47:51.994Z,101101.22
2023-04-25T01:50:40.127Z,101096.81
2023-04-25T01:53:27.331Z,101088.19
2023-04-25T01:56:14.960Z,101093.28
2023-04-25T01:59:02.170Z,101097.69
2023-04-25T02:02:04.325Z,101095.03
2023-04-25T02:04:53.274Z,101068.97
2023-04-25T02:07:42.979Z,101082.72
2023-04-25T02:10:30.906Z,101080.13
2023-04-25T02:13:34.173Z,101086.22
2023-04-25T02:16:25.235Z,101066.34
2023-04-25T02:19:12.206Z,101103.75
2023-04-25T02:21:59.196Z,101108.16
2023-04-25T02:24:46.143Z,101098.50
2023-04-25T02:27:33.042Z,101078.50
2023-04-25T02:30:20.081Z,101087.13
2023-04-25T02:33:07.594Z,101083.63
2023-04-25T02:35:56.494Z,101084.50
2023-04-25T02:38:43.334Z,101084.47
2023-04-25T02:41:30.530Z,100983.88
2023-04-25T02:44:17.510Z,101088.84
2023-04-25T02:47:05.948Z,100966.59
2023-04-25T02:49:52.956Z,101097.59
2023-04-25T02:52:39.891Z,101083.66
2023-04-25T02:55:34.854Z,101104.59
2023-04-25T02:58:25.409Z,101010.03
2023-04-25T03:01:14.028Z,101074.97
2023-04-25T03:04:01.386Z,101081.81
2023-04-25T03:06:48.444Z,101083.56
2023-04-25T03:09:35.432Z,101040.00
2023-04-25T03:12:23.004Z,101053.75
2023-04-25T03:15:10.617Z,101024.31
2023-04-25T03:17:57.577Z,101052.91
2023-04-25T03:20:44.795Z,101053.84
2023-04-25T03:23:31.729Z,101061.66
2023-04-25T03:26:18.810Z,101060.00
2023-04-25T03:29:05.753Z,101062.56
2023-04-25T03:31:54.017Z,101059.88
2023-04-25T03:34:40.859Z,101042.38
2023-04-25T03:37:28.208Z,101037.13
2023-04-25T03:40:15.174Z,101039.75
2023-04-25T03:43:29.072Z,101025.75
2023-04-25T03:46:22.237Z,101017.03
2023-04-25T03:49:09.934Z,101025.72
2023-04-25T03:52:14.008Z,100998.84
2023-04-25T03:55:01.770Z,101024.81
2023-04-25T03:57:48.932Z,101038.84
2023-04-25T04:00:36.859Z,101039.75
2023-04-25T04:03:24.040Z,101047.53
2023-04-25T04:06:11.940Z,101032.63
2023-04-25T04:09:05.044Z,101034.38
2023-04-25T04:11:56.929Z,101033.44
2023-04-25T04:14:44.018Z,101029.84
2023-04-25T04:17:31.392Z,101026.41
2023-04-25T04:20:19.019Z,101036.88
2023-04-25T04:23:05.949Z,101034.28
2023-04-25T04:25:52.750Z,101052.63
2023-04-25T04:28:52.441Z,101062.25
2023-04-25T04:32:05.361Z,101053.59
2023-04-25T04:34:53.600Z,101065.69
2023-04-25T04:37:42.090Z,101072.66
2023-04-25T04:40:32.363Z,101070.00
2023-04-25T04:43:37.762Z,101071.75
2023-04-25T04:46:27.647Z,101035.22
2023-04-25T04:49:32.360Z,101042.94
2023-04-25T04:52:37.911Z,101057.81
2023-04-25T04:55:45.114Z,101072.44
2023-04-25T04:58:43.707Z,101061.94
2023-04-25T05:01:42.939Z,101063.63
2023-04-25T05:04:45.399Z,101053.13
2023-04-25T05:07:41.199Z,101055.69
2023-04-25T05:10:41.198Z,101045.16
2023-04-25T05:13:48.298Z,101038.94
2023-04-25T05:16:55.700Z,101025.88
2023-04-25T05:20:07.304Z,101027.50
2023-04-25T05:23:12.859Z,101021.38
2023-04-25T05:26:06.169Z,100996.00
2023-04-25T05:29:07.669Z,101012.50
2023-04-25T05:32:02.661Z,101010.72
2023-04-25T05:34:50.802Z,101001.91
2023-04-25T05:37:44.187Z,100999.28
2023-04-25T05:40:33.805Z,101000.13
2023-04-25T05:43:40.876Z,100991.38
2023-04-25T05:46:41.291Z,100984.53
2023-04-25T05:50:06.636Z,100990.53
2023-04-25T05:53:12.101Z,100999.13
2023-04-25T05:56:01.642Z,100992.09
2023-04-25T05:58:49.677Z,100990.34
2023-04-25T06:01:36.714Z,100986.88
2023-04-25T06:04:24.238Z,100969.34
2023-04-25T06:07:11.298Z,100971.03
2023-04-25T06:09:58.513Z,100979.78
2023-04-25T06:12:46.221Z,100980.66
2023-04-25T06:15:35.669Z,100976.34
2023-04-25T06:18:22.797Z,100977.94
2023-04-25T06:21:10.210Z,100933.72
2023-04-25T06:23:57.687Z,100963.06
2023-04-25T06:26:44.775Z,100963.06
2023-04-25T06:29:32.035Z,100962.91
2023-04-25T06:32:19.142Z,100942.94
2023-04-25T06:35:06.075Z,100948.88
2023-04-25T06:37:54.264Z,100954.13
2023-04-25T06:40:43.426Z,100926.41
2023-04-25T06:43:31.695Z,100922.97
2023-04-25T06:46:36.855Z,100943.78
2023-04-25T06:49:24.928Z,100938.63
2023-04-25T06:52:12.119Z,100942.81
2023-04-25T06:54:59.819Z,100954.97
2023-04-25T06:58:02.395Z,100937.34
2023-04-25T07:01:27.866Z,100944.34
2023-04-25T07:04:15.682Z,100929.50
2023-04-25T07:07:12.283Z,100930.28
2023-04-25T11:59:17.757Z,100726.94
2023-04-25T12:01:51.633Z,100674.19
2023-04-25T12:04:26.253Z,100720.81
2023-04-25T12:06:55.971Z,100721.66
2023-04-25T12:09:53.784Z,100730.41
2023-04-25T12:12:40.586Z,100713.91
2023-04-25T12:15:32.018Z,100662.84
2023-04-25T12:18:18.912Z,100710.31
2023-04-25T12:21:06.092Z,100712.00
2023-04-25T12:23:52.991Z,100699.88
2023-04-25T12:26:40.245Z,100705.03
2023-04-25T12:32:27.261Z,100711.06
2023-04-25T12:35:14.221Z,100698.84
2023-04-25T12:38:01.349Z,100680.50
2023-04-25T12:40:48.126Z,100681.31
2023-04-25T12:43:35.232Z,100688.28
2023-04-25T12:46:22.461Z,100687.41
2023-04-25T12:49:18.602Z,100662.41
2023-04-25T12:52:06.266Z,100685.72
2023-04-25T12:54:53.299Z,100683.91
2023-04-25T12:57:40.133Z,100672.41
2023-04-25T13:00:27.859Z,100675.00
2023-04-25T13:03:15.009Z,100651.69
2023-04-25T13:06:02.265Z,100663.56
2023-04-25T13:08:49.855Z,100651.28
2023-04-25T13:11:37.040Z,100649.59
2023-04-25T13:14:23.928Z,100654.75
2023-04-25T13:17:10.915Z,100644.31
2023-04-25T13:19:57.696Z,100627.69
2023-04-25T13:22:44.817Z,100581.75
2023-04-25T13:25:31.685Z,100632.78
2023-04-25T13:28:18.736Z,100624.00
2023-04-25T13:31:07.052Z,100618.75
2023-04-25T13:33:54.066Z,100608.22
2023-04-25T13:36:41.223Z,100613.47
2023-04-25T13:39:28.154Z,100604.72
2023-04-25T13:42:15.115Z,100609.03
2023-04-25T13:45:02.009Z,100534.56
2023-04-25T13:47:49.186Z,100576.66
2023-04-25T13:50:36.213Z,100565.22
2023-04-25T13:53:23.140Z,100551.28
2023-04-25T13:56:11.087Z,100555.63
2023-04-25T13:58:58.509Z,100570.41
2023-04-25T14:01:45.577Z,100551.16
2023-04-25T14:04:32.781Z,100512.91
2023-04-25T14:07:19.910Z,100546.75
2023-04-25T14:10:06.950Z,100549.44
2023-04-25T14:12:54.266Z,100479.28
2023-04-25T14:15:41.263Z,100527.41
2023-04-25T14:18:28.281Z,100516.00
2023-04-25T14:21:15.281Z,100506.41
2023-04-25T14:24:02.300Z,100508.09
2023-04-25T14:26:49.258Z,100508.09
2023-04-25T14:29:36.481Z,100514.41
2023-04-25T14:32:23.392Z,100536.13
2023-04-25T14:35:10.320Z,100525.50
2023-04-25T14:37:57.298Z,100459.06
2023-04-25T14:40:44.285Z,100500.09
2023-04-25T14:43:31.256Z,100438.63
2023-04-25T14:46:18.254Z,100379.09
2023-04-25T14:49:05.328Z,100483.38
2023-04-25T14:51:52.290Z,100486.06
2023-04-25T14:54:39.268Z,100477.25
2023-04-25T14:57:26.194Z,100485.97
2023-04-25T15:00:13.117Z,100486.94
2023-04-25T15:03:00.291Z,100492.94
2023-04-25T15:05:47.469Z,100496.44
2023-04-25T15:08:34.376Z,100480.59
2023-04-25T15:11:21.612Z,100485.81
2023-04-25T15:14:08.556Z,100484.94
2023-04-25T15:16:55.586Z,100478.69
2023-04-25T15:19:42.543Z,100479.56
2023-04-25T15:22:29.587Z,100495.28
2023-04-25T15:25:16.554Z,100475.25
2023-04-25T15:28:03.391Z,100496.09
2023-04-25T15:30:50.397Z,100492.59
2023-04-25T15:33:37.225Z,100496.03
2023-04-25T15:36:24.411Z,100489.88
2023-04-25T15:39:11.301Z,100483.72
2023-04-25T15:41:59.933Z,100468.81
2023-04-25T15:44:46.861Z,100464.44
2023-04-25T15:47:33.836Z,100462.63
2023-04-25T15:50:20.758Z,100461.75
2023-04-25T15:53:09.505Z,100456.44
2023-04-25T15:55:56.335Z,100452.03
2023-04-25T15:58:43.534Z,100418.50
2023-04-25T16:01:31.437Z,100460.78
2023-04-25T16:04:19.096Z,100453.78
2023-04-25T16:07:06.217Z,100462.41
2023-04-25T16:09:53.310Z,100454.53
2023-04-25T16:12:40.235Z,100459.75
2023-04-25T16:15:27.653Z,100441.53
2023-04-25T16:18:14.620Z,100452.69
2023-04-25T16:21:01.640Z,100448.31
2023-04-25T16:23:48.701Z,100424.66
2023-04-25T16:26:35.727Z,100415.88
2023-04-25T16:29:25.637Z,100410.63
2023-04-25T16:32:12.771Z,100408.88
2023-04-25T16:34:59.741Z,100401.13
2023-04-25T16:37:46.922Z,100420.22
2023-04-25T16:40:33.961Z,100425.44
2023-04-25T16:43:20.814Z,100419.34
2023-04-25T16:46:07.682Z,100348.44
2023-04-25T16:48:54.620Z,100386.19
2023-04-25T16:51:41.566Z,100398.22
2023-04-25T16:54:28.453Z,100383.34
2023-04-25T16:57:15.289Z,100392.00
2023-04-25T17:00:02.083Z,100389.38
2023-04-25T17:02:49.160Z,100388.47
2023-04-25T17:05:36.136Z,100394.59
2023-04-25T17:08:23.476Z,100383.25
2023-04-25T17:11:10.736Z,100383.13
2023-04-25T17:13:57.867Z,100347.72
2023-04-25T17:16:55.199Z,100394.47
2023-04-25T17:19:42.135Z,100400.56
2023-04-25T17:22:29.344Z,100394.38
2023-04-25T17:25:16.276Z,100390.91
2023-04-25T17:28:03.277Z,100387.38
2023-04-25T17:30:50.521Z,100383.81
2023-04-25T17:33:37.396Z,100384.69
2023-04-25T17:36:24.537Z,100387.31
2023-04-25T17:39:11.433Z,100382.94
2023-04-25T17:42:00.761Z,100381.28
2023-04-25T17:44:47.975Z,100368.94
2023-04-25T17:47:34.929Z,100365.59
2023-04-25T17:50:22.125Z,100383.69
2023-04-25T17:53:09.364Z,100373.22
2023-04-25T17:55:56.332Z,100375.81
2023-04-25T17:58:43.178Z,100367.09
2023-04-25T18:01:30.198Z,100367.13
2023-04-25T18:04:17.133Z,100367.03
2023-04-25T18:07:04.039Z,100358.31
2023-04-25T18:09:51.161Z,100370.47
2023-04-25T18:12:38.200Z,100365.19
2023-04-25T18:15:25.623Z,100360.81
2023-04-25T18:18:12.587Z,100359.06
2023-04-25T18:20:59.678Z,100349.56
2023-04-25T18:23:47.047Z,100360.78
2023-04-25T18:26:34.234Z,100364.28
2023-04-25T18:29:32.235Z,100369.53
2023-04-25T18:32:20.309Z,100311.84
2023-04-25T18:35:07.247Z,100369.47
2023-04-25T18:37:54.249Z,100368.56
2023-04-25T18:40:50.279Z,100368.56
2023-04-25T18:43:43.725Z,100371.16
2023-04-25T18:46:31.280Z,100373.72
2023-04-25T18:49:18.768Z,100377.22
2023-04-25T18:52:05.656Z,100366.81
2023-04-25T18:54:52.568Z,100371.84
2023-04-25T18:57:39.616Z,100378.81
2023-04-25T19:00:27.414Z,100385.75
2023-04-25T19:03:14.507Z,100380.50
2023-04-25T19:06:01.425Z,100384.84
2023-04-25T19:08:48.879Z,100378.66
2023-04-25T19:11:36.638Z,100380.47
2023-04-25T19:14:23.709Z,100352.78
2023-04-25T19:17:10.608Z,100380.34
2023-04-25T19:19:57.719Z,100358.66
2023-04-25T19:22:44.555Z,100379.34
2023-04-25T19:25:31.512Z,100370.59
2023-04-25T19:28:18.496Z,100378.44
2023-04-25T19:31:05.495Z,100381.88
2023-04-25T19:33:52.892Z,100365.22
2023-04-25T19:36:40.115Z,100353.97
2023-04-25T19:39:27.735Z,100365.19
2023-04-25T19:42:14.604Z,100368.63
2023-04-25T19:45:01.595Z,100377.44
2023-04-25T19:47:48.446Z,100373.03
2023-04-25T19:50:35.443Z,100376.44
2023-04-25T19:53:22.337Z,100379.06
2023-04-25T19:56:09.350Z,100346.38
2023-04-25T19:58:56.213Z,100373.91
2023-04-25T20:01:43.078Z,100380.78
2023-04-25T20:04:30.021Z,100381.66
2023-04-25T20:07:17.154Z,100374.69
2023-04-25T20:10:03.948Z,100375.56
2023-04-25T20:12:50.879Z,100383.41
2023-04-25T20:15:38.713Z,100374.78
2023-04-25T20:18:25.615Z,100378.25
2023-04-25T20:21:14.430Z,100381.69
2023-04-25T20:24:01.370Z,100382.56
2023-04-25T20:26:48.974Z,100383.41
2023-04-25T20:29:35.963Z,100376.63
2023-04-25T20:32:23.001Z,100377.31
2023-04-25T20:35:09.890Z,100374.63
2023-04-25T20:37:57.290Z,100374.56
2023-04-25T20:40:44.289Z,100374.56
2023-04-25T20:43:31.117Z,100370.97
2023-04-25T20:46:19.793Z,100371.91
2023-04-25T20:49:06.828Z,100363.09
2023-04-25T20:51:54.936Z,100365.78
2023-04-25T20:54:41.948Z,100369.38
2023-04-25T20:57:28.944Z,100375.41
2023-04-25T21:00:15.834Z,100368.59
2023-04-25T21:03:02.972Z,100384.22
2023-04-25T21:05:49.993Z,100381.66
2023-04-25T21:08:36.908Z,100379.88
2023-04-25T21:11:23.866Z,100381.69
2023-04-25T21:14:10.722Z,100394.75
2023-04-25T21:16:57.714Z,100397.31
2023-04-25T21:19:44.677Z,100394.69
2023-04-25T21:22:31.683Z,100398.16
2023-04-25T21:25:18.627Z,100377.41
2023-04-25T21:28:09.154Z,100395.53
2023-04-25T21:30:56.285Z,100390.22
2023-04-25T21:33:43.209Z,100391.06
2023-04-25T21:36:30.030Z,100405.06
2023-04-25T21:39:17.050Z,100403.31
2023-04-25T21:42:04.083Z,100362.94
2023-04-25T21:44:51.562Z,100395.38
2023-04-25T21:47:38.615Z,100384.13
2023-04-25T21:50:25.775Z,100400.59
2023-04-25T21:53:12.749Z,100403.28
2023-04-25T21:55:59.787Z,100405.84
2023-04-25T21:58:46.742Z,100407.59
2023-04-25T22:01:33.706Z,100407.59
2023-04-25T22:04:20.883Z,100398.16
2023-04-25T22:07:07.985Z,100409.38
2023-04-25T22:09:55.929Z,100411.03
2023-04-25T22:12:42.954Z,100404.88
2023-04-25T22:15:30.581Z,100413.59
2023-04-25T22:18:21.145Z,100404.94
2023-04-25T22:21:08.077Z,100415.31
2023-04-25T22:23:54.985Z,100402.50
2023-04-25T22:26:41.993Z,100418.75
2023-04-25T22:29:29.535Z,100410.91
2023-04-25T22:32:16.515Z,100416.09
2023-04-25T22:35:03.393Z,100408.19
2023-04-25T22:37:50.465Z,100413.41
2023-04-25T22:40:37.341Z,100406.44
2023-04-25T22:43:24.316Z,100410.78
2023-04-25T22:46:11.245Z,100405.56
2023-04-25T22:48:58.372Z,100381.41
2023-04-25T22:51:45.189Z,100398.53
2023-04-25T22:54:32.271Z,100392.41
2023-04-25T22:57:19.191Z,100396.00
2023-04-25T23:00:06.120Z,100379.50
2023-04-25T23:02:53.066Z,100366.63
2023-04-25T23:05:40.598Z,100383.88
2023-04-25T23:08:27.460Z,100391.81
2023-04-25T23:11:14.971Z,100383.22
2023-04-25T23:14:01.969Z,100395.44
2023-04-25T23:16:49.017Z,100400.69
2023-04-25T23:19:35.989Z,100392.03
2023-04-25T23:22:23.049Z,100389.25
2023-04-25T23:25:10.166Z,100395.38
2023-04-25T23:27:57.386Z,100392.03
2023-04-25T23:30:44.349Z,100412.88
2023-04-25T23:33:31.318Z,100406.00
2023-04-25T23:36:18.206Z,100397.91
2023-04-25T23:39:05.154Z,100396.16
2023-04-25T23:41:51.998Z,100399.63
2023-04-25T23:44:39.133Z,100403.97
2023-04-25T23:47:26.023Z,100420.63
2023-04-25T23:50:13.138Z,100411.84
2023-04-25T23:53:00.138Z,100397.28
2023-04-25T23:55:47.734Z,100402.25
2023-04-25T23:58:34.667Z,100317.81
